createdAt,value
2022-11-05T00:00:31.983Z,10.77
2022-11-05T00:03:19.164Z,10.78
2022-11-05T00:06:07.273Z,10.79
2022-11-05T00:08:53.556Z,10.79
2022-11-05T00:11:42.377Z,10.78
2022-11-05T00:14:28.308Z,10.79
2022-11-05T00:16:56.734Z,10.79
2022-11-05T00:19:26.368Z,10.78
2022-11-05T00:22:12.384Z,10.79
2022-11-05T00:24:58.251Z,10.82
2022-11-05T00:27:26.547Z,10.83
2022-11-05T00:29:54.805Z,10.91
2022-11-05T00:32:24.459Z,10.94
2022-11-05T00:34:55.185Z,10.98
2022-11-05T00:37:23.558Z,10.98
2022-11-05T00:39:51.780Z,10.97
2022-11-05T00:42:37.704Z,10.96
2022-11-05T00:45:07.664Z,10.92
2022-11-05T00:47:53.894Z,10.86
2022-11-05T00:50:25.702Z,10.80
2022-11-05T00:53:13.007Z,10.79
2022-11-05T00:55:55.389Z,10.20
2022-11-05T00:58:48.425Z,10.74
2022-11-05T01:01:36.686Z,10.71
2022-11-05T01:04:11.045Z,10.66
2022-11-05T01:06:43.143Z,10.67
2022-11-05T01:09:11.533Z,10.64
2022-11-05T01:11:43.284Z,10.62
2022-11-05T01:14:16.037Z,10.26
2022-11-05T01:16:45.470Z,10.48
2022-11-05T01:19:15.245Z,10.59
2022-11-05T01:21:44.985Z,10.58
2022-11-05T01:24:20.244Z,10.60
2022-11-05T01:27:04.819Z,10.58
2022-11-05T01:29:53.490Z,10.60
2022-11-05T01:32:30.207Z,10.61
2022-11-05T01:35:09.154Z,10.59
2022-11-05T01:37:54.914Z,10.58
2022-11-05T01:40:44.950Z,10.55
2022-11-05T01:43:17.135Z,10.57
2022-11-05T01:45:48.625Z,10.59
2022-11-05T01:48:19.560Z,10.58
2022-11-05T01:50:59.653Z,10.57
2022-11-05T01:53:34.821Z,10.16
2022-11-05T01:56:07.095Z,10.57
2022-11-05T01:58:39.438Z,10.54
2022-11-05T02:01:08.002Z,10.53
2022-11-05T02:03:37.138Z,10.52
2022-11-05T02:06:09.412Z,10.49
2022-11-05T02:08:55.392Z,10.03
2022-11-05T02:11:24.106Z,10.41
2022-11-05T02:13:52.765Z,10.41
2022-11-05T02:16:35.630Z,10.39
2022-11-05T02:19:15.216Z,10.38
2022-11-05T02:22:20.512Z,10.38
2022-11-05T02:25:15.764Z,10.38
2022-11-05T02:28:18.443Z,10.37
2022-11-05T02:30:55.315Z,10.34
2022-11-05T02:33:33.814Z,10.36
2022-11-05T02:36:15.748Z,10.35
2022-11-05T02:38:53.689Z,10.35
2022-11-05T02:41:31.648Z,9.69
2022-11-05T02:44:10.084Z,10.30
2022-11-05T02:46:48.457Z,10.26
2022-11-05T02:49:29.196Z,9.88
2022-11-05T02:52:00.098Z,10.28
2022-11-05T02:54:34.562Z,10.30
2022-11-05T02:57:05.080Z,10.31
2022-11-05T02:59:33.421Z,10.34
2022-11-05T03:02:05.306Z,10.35
2022-11-05T03:04:34.056Z,10.33
2022-11-05T03:07:25.109Z,10.33
2022-11-05T03:10:28.196Z,10.29
2022-11-05T03:13:11.223Z,10.07
2022-11-05T03:15:51.032Z,10.31
2022-11-05T03:18:26.999Z,10.35
2022-11-05T03:21:03.734Z,10.37
2022-11-05T03:23:37.153Z,10.41
2022-11-05T03:26:11.778Z,10.43
2022-11-05T03:28:44.391Z,10.44
2022-11-05T03:31:15.726Z,10.45
2022-11-05T03:33:47.771Z,10.44
2022-11-05T03:36:21.597Z,10.42
2022-11-05T03:38:54.717Z,10.40
2022-11-05T03:41:25.320Z,10.35
2022-11-05T03:44:03.317Z,10.34
2022-11-05T03:46:36.247Z,10.35
2022-11-05T03:49:09.901Z,10.33
2022-11-05T03:51:45.077Z,10.33
2022-11-05T03:54:14.769Z,10.36
2022-11-05T03:56:50.289Z,10.33
2022-11-05T03:59:19.333Z,10.33
2022-11-05T04:01:49.188Z,9.47
2022-11-05T04:04:19.086Z,10.34
2022-11-05T04:07:04.896Z,10.33
2022-11-05T04:09:50.988Z,10.31
2022-11-05T04:12:37.023Z,10.33
2022-11-05T04:15:05.717Z,10.31
2022-11-05T04:17:32.948Z,10.31
2022-11-05T04:20:20.080Z,10.31
2022-11-05T04:23:05.939Z,10.25
2022-11-05T04:25:34.446Z,10.18
2022-11-05T04:28:02.710Z,10.05
2022-11-05T04:30:30.005Z,10.12
2022-11-05T04:33:04.352Z,10.00
2022-11-05T04:35:36.920Z,9.80
2022-11-05T04:38:05.876Z,10.02
2022-11-05T04:40:34.462Z,10.02
2022-11-05T04:43:02.968Z,10.07
2022-11-05T04:45:34.405Z,10.09
2022-11-05T04:48:03.114Z,10.09
2022-11-05T04:50:33.613Z,10.06
2022-11-05T04:53:02.118Z,10.05
2022-11-05T04:55:30.477Z,10.02
2022-11-05T04:57:58.812Z,10.01
2022-11-05T05:00:27.099Z,10.03
2022-11-05T05:02:55.633Z,10.03
2022-11-05T05:05:23.870Z,10.03
2022-11-05T05:07:53.572Z,10.01
2022-11-05T05:10:21.802Z,9.97
2022-11-05T05:12:50.128Z,9.95
2022-11-05T05:15:18.429Z,9.94
2022-11-05T05:17:52.413Z,9.95
2022-11-05T05:20:38.371Z,9.89
2022-11-05T05:23:08.276Z,9.83
2022-11-05T05:25:36.853Z,9.82
2022-11-05T05:28:05.248Z,9.79
2022-11-05T05:30:33.499Z,9.78
2022-11-05T05:33:04.437Z,9.77
2022-11-05T05:35:32.747Z,9.73
2022-11-05T05:38:01.057Z,9.59
2022-11-05T05:40:30.758Z,9.70
2022-11-05T05:42:59.061Z,9.71
2022-11-05T05:45:27.308Z,9.77
2022-11-05T05:47:56.908Z,9.41
2022-11-05T05:50:25.248Z,9.87
2022-11-05T05:52:53.865Z,9.68
2022-11-05T05:55:22.224Z,9.89
2022-11-05T05:57:52.141Z,9.88
2022-11-05T06:00:20.355Z,9.84
2022-11-05T06:02:48.719Z,9.81
2022-11-05T06:05:17.386Z,9.38
2022-11-05T06:07:45.692Z,9.69
2022-11-05T06:10:14.002Z,9.80
2022-11-05T06:12:43.649Z,9.47
2022-11-05T06:15:13.448Z,9.71
2022-11-05T06:17:41.763Z,9.41
2022-11-05T06:20:11.721Z,9.75
2022-11-05T06:22:40.527Z,9.74
2022-11-05T06:25:09.916Z,9.76
2022-11-05T06:27:38.261Z,9.78
2022-11-05T06:30:07.480Z,9.78
2022-11-05T06:32:37.248Z,9.78
2022-11-05T06:35:06.043Z,9.76
2022-11-05T06:37:34.663Z,9.72
2022-11-05T06:40:02.926Z,9.72
2022-11-05T06:42:32.445Z,9.75
2022-11-05T06:45:00.728Z,9.75
2022-11-05T06:47:29.122Z,9.77
2022-11-05T06:49:58.730Z,9.78
2022-11-05T06:52:31.292Z,9.80
2022-11-05T06:54:59.702Z,9.78
2022-11-05T06:57:28.970Z,9.78
2022-11-05T07:00:01.330Z,9.78
2022-11-05T07:02:31.670Z,9.79
2022-11-05T07:05:01.273Z,9.87
2022-11-05T07:07:29.672Z,9.90
2022-11-05T07:09:57.961Z,9.97
2022-11-05T07:12:26.254Z,10.03
2022-11-05T07:14:54.509Z,10.08
2022-11-05T07:17:23.681Z,10.16
2022-11-05T07:19:51.966Z,10.30
2022-11-05T07:22:21.947Z,10.48
2022-11-05T07:24:50.523Z,10.73
2022-11-05T07:27:19.097Z,11.06
2022-11-05T07:29:47.436Z,11.43
2022-11-05T07:32:15.705Z,11.82
2022-11-05T07:34:44.987Z,12.22
2022-11-05T07:37:16.635Z,12.63
2022-11-05T07:39:46.408Z,12.88
2022-11-05T07:42:15.135Z,12.87
2022-11-05T07:44:43.427Z,13.32
2022-11-05T07:47:11.826Z,13.45
2022-11-05T07:49:40.244Z,13.73
2022-11-05T07:52:08.493Z,13.91
2022-11-05T07:54:36.814Z,13.96
2022-11-05T07:57:07.478Z,13.94
2022-11-05T07:59:35.825Z,13.94
2022-11-05T08:02:04.208Z,13.93
2022-11-05T08:04:32.697Z,13.89
2022-11-05T08:07:00.871Z,13.96
2022-11-05T08:09:29.112Z,14.11
2022-11-05T08:12:02.614Z,14.20
2022-11-05T08:14:32.928Z,14.33
2022-11-05T08:17:01.199Z,14.44
2022-11-05T08:19:29.512Z,14.36
2022-11-05T08:21:57.854Z,14.30
2022-11-05T08:24:26.181Z,14.17
2022-11-05T08:26:54.652Z,14.07
2022-11-05T08:29:23.201Z,14.01
2022-11-05T08:31:52.839Z,14.02
2022-11-05T08:34:22.121Z,14.11
2022-11-05T08:36:50.350Z,14.23
2022-11-05T08:39:20.032Z,14.36
2022-11-05T08:41:48.487Z,14.40
2022-11-05T08:44:16.746Z,14.43
2022-11-05T08:46:45.121Z,14.38
2022-11-05T08:49:14.875Z,14.30
2022-11-05T08:51:44.984Z,14.05
2022-11-05T08:54:13.469Z,14.28
2022-11-05T08:56:41.679Z,14.18
2022-11-05T08:59:10.170Z,14.09
2022-11-05T09:01:38.618Z,14.03
2022-11-05T09:04:07.094Z,13.96
2022-11-05T09:06:36.769Z,13.91
2022-11-05T09:09:05.343Z,13.86
2022-11-05T09:11:57.427Z,13.90
2022-11-05T09:14:22.105Z,13.92
2022-11-05T09:16:50.369Z,13.99
2022-11-05T09:19:18.644Z,13.97
2022-11-05T09:21:48.361Z,14.00
2022-11-05T09:24:16.661Z,14.00
2022-11-05T09:26:44.922Z,14.00
2022-11-05T09:29:14.482Z,13.97
2022-11-05T09:31:43.336Z,13.97
2022-11-05T09:34:11.622Z,13.96
2022-11-05T09:36:39.976Z,13.96
2022-11-05T09:39:09.807Z,14.01
2022-11-05T09:41:41.082Z,14.05
2022-11-05T09:44:15.097Z,14.07
2022-11-05T09:46:46.788Z,14.06
2022-11-05T09:49:25.748Z,13.92
2022-11-05T09:51:55.462Z,14.09
2022-11-05T09:54:27.483Z,13.85
2022-11-05T09:56:57.095Z,14.19
2022-11-05T09:59:30.848Z,14.24
2022-11-05T10:02:04.525Z,14.27
2022-11-05T10:04:35.480Z,14.33
2022-11-05T10:07:07.508Z,14.35
2022-11-05T10:09:46.496Z,14.34
2022-11-05T10:12:21.841Z,14.33
2022-11-05T10:14:54.943Z,14.20
2022-11-05T10:17:27.572Z,13.49
2022-11-05T10:20:03.938Z,14.42
2022-11-05T10:22:32.294Z,14.44
2022-11-05T10:25:01.992Z,14.47
2022-11-05T10:27:33.837Z,14.50
2022-11-05T10:30:02.420Z,14.53
2022-11-05T10:32:34.248Z,14.59
2022-11-05T10:35:05.319Z,14.63
2022-11-05T10:37:39.589Z,14.66
2022-11-05T10:40:34.201Z,14.71
2022-11-05T10:43:06.948Z,14.75
2022-11-05T10:45:46.742Z,14.78
2022-11-05T10:48:44.096Z,14.82
2022-11-05T10:51:13.332Z,14.84
2022-11-05T10:53:51.175Z,14.87
2022-11-05T10:56:38.684Z,14.86
2022-11-05T10:59:20.401Z,14.96
2022-11-05T11:01:48.915Z,15.01
2022-11-05T11:04:24.974Z,15.05
2022-11-05T11:06:55.460Z,15.02
2022-11-05T11:09:26.991Z,15.21
2022-11-05T11:12:03.146Z,15.25
2022-11-05T11:14:31.516Z,15.27
2022-11-05T11:17:19.221Z,15.32
2022-11-05T11:19:47.593Z,15.39
2022-11-05T11:22:21.103Z,15.31
2022-11-05T11:24:52.036Z,15.52
2022-11-05T11:27:24.595Z,15.54
2022-11-05T11:29:59.018Z,15.50
2022-11-05T11:32:33.257Z,15.48
2022-11-05T11:35:01.983Z,15.48
2022-11-05T11:37:35.930Z,15.29
2022-11-05T11:40:14.810Z,15.50
2022-11-05T11:42:48.875Z,15.57
2022-11-05T11:45:19.948Z,15.64
2022-11-05T11:47:50.770Z,15.65
2022-11-05T11:50:36.395Z,15.67
2022-11-05T11:53:36.278Z,15.70
2022-11-05T11:56:13.807Z,15.55
2022-11-05T11:58:46.623Z,15.72
2022-11-05T12:01:47.125Z,15.70
2022-11-05T12:04:26.674Z,15.68
2022-11-05T12:07:06.371Z,15.76
2022-11-05T12:09:50.111Z,15.74
2022-11-05T12:12:24.773Z,15.68
2022-11-05T12:14:59.642Z,15.67
2022-11-05T12:17:44.277Z,15.65
2022-11-05T12:20:31.229Z,15.64
2022-11-05T12:23:19.107Z,15.67
2022-11-05T12:25:53.169Z,15.72
2022-11-05T12:29:12.236Z,15.76
2022-11-05T12:31:45.783Z,15.76
2022-11-05T12:34:32.811Z,15.78
2022-11-05T12:37:15.868Z,15.81
2022-11-05T12:39:50.209Z,15.34
2022-11-05T12:42:32.985Z,15.84
2022-11-05T12:45:04.620Z,15.85
2022-11-05T12:47:50.758Z,15.80
2022-11-05T12:50:27.150Z,15.78
2022-11-05T12:53:18.447Z,15.76
2022-11-05T12:55:49.636Z,15.74
2022-11-05T12:58:23.976Z,15.72
2022-11-05T13:00:58.929Z,15.72
2022-11-05T13:03:40.327Z,15.72
2022-11-05T13:06:13.309Z,15.69
2022-11-05T13:08:49.182Z,15.68
2022-11-05T13:11:22.732Z,15.66
2022-11-05T13:14:03.666Z,15.66
2022-11-05T13:16:36.901Z,15.56
2022-11-05T13:19:15.029Z,15.63
2022-11-05T13:21:45.120Z,15.61
2022-11-05T13:24:19.267Z,15.47
2022-11-05T13:26:53.907Z,15.63
2022-11-05T13:29:27.748Z,15.43
2022-11-05T13:32:12.273Z,15.50
2022-11-05T13:34:42.252Z,15.60
2022-11-05T13:37:31.488Z,15.59
2022-11-05T13:40:04.812Z,15.58
2022-11-05T13:43:01.424Z,15.63
2022-11-05T13:46:08.007Z,15.61
2022-11-05T13:49:17.481Z,15.55
2022-11-05T13:51:54.666Z,15.54
2022-11-05T13:55:10.533Z,15.52
2022-11-05T13:58:03.604Z,15.33
2022-11-05T14:00:37.736Z,15.47
2022-11-05T14:03:15.587Z,15.46
2022-11-05T14:05:45.316Z,15.46
2022-11-05T14:08:21.373Z,15.42
2022-11-05T14:11:00.975Z,15.39
2022-11-05T14:13:34.829Z,15.41
2022-11-05T14:16:07.769Z,15.38
2022-11-05T14:18:42.895Z,15.37
2022-11-05T14:21:48.380Z,15.34
2022-11-05T14:24:28.144Z,15.26
2022-11-05T14:27:34.032Z,15.17
2022-11-05T14:30:02.412Z,15.08
2022-11-05T14:32:45.228Z,15.09
2022-11-05T14:35:37.070Z,15.04
2022-11-05T14:38:06.736Z,14.99
2022-11-05T14:40:38.956Z,14.98
2022-11-05T14:43:17.837Z,14.95
2022-11-05T14:45:56.089Z,14.95
2022-11-05T14:48:32.297Z,14.99
2022-11-05T14:51:01.050Z,15.01
2022-11-05T14:53:37.492Z,15.05
2022-11-05T14:56:10.966Z,15.04
2022-11-05T14:58:40.694Z,14.77
2022-11-05T15:01:10.451Z,15.03
2022-11-05T15:04:02.264Z,15.05
2022-11-05T15:06:33.496Z,15.06
2022-11-05T15:09:27.973Z,15.09
2022-11-05T15:12:17.796Z,15.10
2022-11-05T15:14:55.973Z,15.10
2022-11-05T15:17:30.059Z,15.08
2022-11-05T15:20:09.194Z,15.15
2022-11-05T15:22:40.813Z,15.02
2022-11-05T15:25:19.188Z,15.06
2022-11-05T15:27:58.805Z,15.06
2022-11-05T15:30:27.804Z,15.10
2022-11-05T15:32:56.081Z,15.10
2022-11-05T15:35:28.005Z,15.08
2022-11-05T15:38:01.995Z,15.04
2022-11-05T15:40:33.415Z,14.99
2022-11-05T15:43:20.788Z,14.95
2022-11-05T15:46:07.644Z,14.88
2022-11-05T15:48:37.135Z,14.83
2022-11-05T15:51:05.635Z,14.84
2022-11-05T15:54:23.755Z,14.82
2022-11-05T15:56:50.345Z,14.72
2022-11-05T15:59:21.667Z,14.68
2022-11-05T16:01:52.494Z,14.62
2022-11-05T16:04:24.521Z,14.58
2022-11-05T16:06:55.145Z,14.35
2022-11-05T16:09:25.930Z,14.55
2022-11-05T16:12:14.049Z,14.55
2022-11-05T16:14:43.999Z,14.49
2022-11-05T16:17:20.337Z,14.45
2022-11-05T16:19:49.860Z,14.38
2022-11-05T16:22:18.615Z,14.16
2022-11-05T16:24:47.765Z,14.22
2022-11-05T16:27:19.809Z,14.12
2022-11-05T16:29:55.559Z,13.93
2022-11-05T16:32:30.674Z,13.91
2022-11-05T16:35:02.083Z,13.77
2022-11-05T16:37:36.739Z,13.64
2022-11-05T16:40:14.377Z,13.47
2022-11-05T16:42:43.473Z,13.36
2022-11-05T16:45:14.932Z,13.27
2022-11-05T16:47:44.738Z,13.16
2022-11-05T16:50:25.450Z,13.06
2022-11-05T16:52:54.194Z,12.98
2022-11-05T16:55:22.620Z,12.88
2022-11-05T16:57:53.583Z,12.88
2022-11-05T17:00:24.266Z,12.85
2022-11-05T17:02:53.180Z,12.80
2022-11-05T17:05:24.367Z,12.75
2022-11-05T17:07:53.369Z,12.71
2022-11-05T17:10:22.483Z,12.66
2022-11-05T17:12:53.128Z,12.60
2022-11-05T17:15:25.862Z,12.55
2022-11-05T17:17:55.703Z,12.49
2022-11-05T17:20:35.143Z,12.44
2022-11-05T17:23:07.396Z,12.36
2022-11-05T17:25:36.186Z,12.39
2022-11-05T17:28:05.673Z,12.33
2022-11-05T17:30:35.870Z,12.32
2022-11-05T17:33:04.347Z,12.30
2022-11-05T17:35:33.322Z,12.26
2022-11-05T17:38:01.625Z,12.23
2022-11-05T17:40:30.460Z,12.10
2022-11-05T17:42:58.813Z,12.17
2022-11-05T17:45:27.018Z,12.18
2022-11-05T17:47:56.744Z,12.18
2022-11-05T17:50:25.044Z,12.19
2022-11-05T17:52:53.338Z,12.17
2022-11-05T17:55:21.624Z,12.15
2022-11-05T17:57:51.630Z,12.14
2022-11-05T18:00:22.711Z,12.11
2022-11-05T18:02:53.010Z,12.06
2022-11-05T18:05:24.242Z,11.92
2022-11-05T18:07:52.810Z,11.95
2022-11-05T18:10:21.072Z,11.88
2022-11-05T18:12:49.435Z,11.81
2022-11-05T18:15:18.535Z,11.76
2022-11-05T18:17:47.363Z,11.71
2022-11-05T18:20:19.204Z,11.66
2022-11-05T18:22:50.784Z,11.64
2022-11-05T18:25:19.487Z,11.59
2022-11-05T18:27:47.733Z,11.56
2022-11-05T18:30:17.091Z,11.50
2022-11-05T18:32:45.667Z,11.49
2022-11-05T18:35:14.692Z,11.41
2022-11-05T18:37:43.474Z,11.37
2022-11-05T18:40:14.347Z,11.30
2022-11-05T18:42:42.677Z,11.11
2022-11-05T18:45:12.674Z,11.08
2022-11-05T18:47:41.189Z,10.86
2022-11-05T18:50:10.597Z,10.76
2022-11-05T18:52:39.001Z,10.67
2022-11-05T18:55:08.536Z,10.57
2022-11-05T18:57:39.313Z,10.53
2022-11-05T19:00:08.640Z,10.57
2022-11-05T19:02:37.003Z,10.57
2022-11-05T19:07:54.056Z,10.58
2022-11-05T19:10:22.344Z,10.56
2022-11-05T19:12:52.149Z,10.55
2022-11-05T19:15:20.676Z,10.46
2022-11-05T19:17:48.992Z,10.40
2022-11-05T19:20:17.823Z,10.36
2022-11-05T19:22:46.124Z,10.31
2022-11-05T19:25:14.388Z,10.27
2022-11-05T19:27:43.770Z,10.34
2022-11-05T19:30:13.854Z,10.38
2022-11-05T19:32:42.079Z,10.46
2022-11-05T19:35:10.755Z,10.34
2022-11-05T19:37:39.055Z,10.29
2022-11-05T19:40:08.924Z,10.26
2022-11-05T19:42:37.222Z,10.16
2022-11-05T19:45:23.457Z,10.13
2022-11-05T19:47:55.758Z,10.06
2022-11-05T19:50:24.031Z,10.04
2022-11-05T19:52:52.320Z,10.03
2022-11-05T19:55:20.596Z,9.95
2022-11-05T19:57:48.962Z,9.96
2022-11-05T20:00:17.773Z,9.83
2022-11-05T20:02:46.586Z,9.76
2022-11-05T20:05:18.366Z,9.63
2022-11-05T20:07:52.308Z,9.75
2022-11-05T20:10:21.277Z,9.76
2022-11-05T20:12:49.553Z,9.80
2022-11-05T20:15:19.811Z,9.81
2022-11-05T20:17:52.222Z,9.83
2022-11-05T20:20:22.310Z,9.79
2022-11-05T20:22:52.891Z,9.69
2022-11-05T20:25:21.158Z,9.71
2022-11-05T20:27:49.412Z,9.66
2022-11-05T20:30:18.778Z,9.52
2022-11-05T20:32:47.184Z,9.50
2022-11-05T20:35:16.476Z,9.23
2022-11-05T20:37:54.089Z,9.47
2022-11-05T20:40:23.242Z,9.44
2022-11-05T20:42:51.743Z,9.37
2022-11-05T20:45:21.112Z,9.35
2022-11-05T20:47:50.545Z,8.45
2022-11-05T20:50:19.410Z,9.15
2022-11-05T20:52:50.088Z,9.15
2022-11-05T20:55:19.178Z,9.03
2022-11-05T20:57:47.526Z,8.95
2022-11-05T21:00:17.067Z,8.93
2022-11-05T21:02:46.495Z,8.86
2022-11-05T21:05:14.999Z,8.78
2022-11-05T21:07:44.480Z,8.77
2022-11-05T21:10:14.288Z,8.77
2022-11-05T21:12:42.906Z,8.71
2022-11-05T21:15:12.769Z,8.73
2022-11-05T21:17:41.488Z,8.69
2022-11-05T21:20:10.702Z,8.61
2022-11-05T21:22:39.152Z,8.49
2022-11-05T21:25:08.871Z,8.43
2022-11-05T21:27:42.576Z,8.42
2022-11-05T21:30:13.982Z,8.42
2022-11-05T21:32:42.755Z,8.47
2022-11-05T21:35:11.633Z,8.49
2022-11-05T21:37:41.257Z,8.52
2022-11-05T21:40:12.776Z,8.54
2022-11-05T21:42:42.834Z,8.53
2022-11-05T21:45:12.152Z,8.48
2022-11-05T21:47:40.436Z,8.49
2022-11-05T21:50:09.858Z,8.46
2022-11-05T21:53:10.199Z,8.39
2022-11-05T21:55:59.665Z,8.38
2022-11-05T21:58:46.803Z,8.42
2022-11-05T22:01:15.183Z,8.24
2022-11-05T22:03:43.637Z,8.16
2022-11-05T22:06:12.220Z,8.04
2022-11-05T22:08:40.645Z,8.03
2022-11-05T22:11:08.987Z,7.39
2022-11-05T22:13:38.754Z,7.89
2022-11-05T22:16:08.771Z,7.78
2022-11-05T22:18:37.114Z,7.79
2022-11-05T22:21:05.631Z,7.76
2022-11-05T22:23:34.023Z,7.65
2022-11-05T22:26:03.645Z,7.61
2022-11-05T22:28:31.963Z,7.54
2022-11-05T22:31:01.753Z,7.45
2022-11-05T22:33:30.117Z,7.34
2022-11-05T22:35:58.424Z,7.26
2022-11-05T22:38:26.733Z,7.17
2022-11-05T22:40:55.249Z,7.06
2022-11-05T22:43:23.654Z,7.10
2022-11-05T22:45:53.641Z,7.00
2022-11-05T22:48:23.677Z,7.02
2022-11-05T22:50:52.411Z,6.86
2022-11-05T22:53:21.004Z,6.88
2022-11-05T22:55:49.357Z,6.82
2022-11-05T22:58:18.828Z,6.71
2022-11-05T23:00:47.193Z,6.71
2022-11-05T23:03:15.624Z,6.58
2022-11-05T23:05:45.493Z,6.52
2022-11-05T23:08:31.345Z,6.46
2022-11-05T23:11:17.369Z,6.39
2022-11-05T23:13:46.128Z,6.29
2022-11-05T23:16:31.845Z,6.19
2022-11-05T23:19:17.747Z,6.20
2022-11-05T23:22:04.790Z,6.13
2022-11-05T23:24:33.288Z,6.04
2022-11-05T23:27:01.799Z,6.01
2022-11-05T23:29:33.753Z,5.96
2022-11-05T23:32:19.449Z,5.94
2022-11-05T23:34:48.804Z,5.93
2022-11-05T23:37:39.041Z,5.96
2022-11-05T23:40:10.481Z,5.97
2022-11-05T23:42:56.555Z,5.97
2022-11-05T23:45:50.923Z,5.92
2022-11-05T23:48:24.540Z,5.85
2022-11-05T23:50:57.770Z,5.85
2022-11-05T23:53:28.074Z,5.78
2022-11-05T23:56:01.460Z,5.63
2022-11-05T23:58:30.423Z,5.69
